Terminal Aerodrome Forecast
Issued by NWS

Home | Current Version | Previous Version | Graphics & Text | Print | Product List | Glossary On
Versions: 1 2 3 4 5 6 7 8 9 10 11 12 13 14
050
FTUS42 KMHX 091130
TAFPGV
TAF
KPGV 091130Z 0912/1012 31003KT P6SM SKC
     FM091400 34009G15KT P6SM SKC
     FM092300 00000KT P6SM SKC
      AMD LTD TO CLD VIS AND WIND=

USA.gov is the U.S. government's official web portal to all federal, state and local government web resources and services.